Time;durP1;ratioP1;P1;durP2;ratioP2;P2;SDS_P1;SDS_P2;PMS_P1;PMS_P2;Temp;Humidity;BMP_temperature;BMP_pressure;BME280_temperature;BME280_humidity;BME280_pressure;Samples;Min_cycle;Max_cycle;Signal;HPM_P1;HPM_P2
2021/12/24 00:01:08;;;;;;;102.47;43.78;;;;;;;5.49;100.00;100353.59;5101769;27;20020;-85
2021/12/24 00:03:34;;;;;;;95.78;42.20;;;;;;;5.56;100.00;100359.50;5107500;28;20030;-85
2021/12/24 00:06:02;;;;;;;92.80;43.10;;;;;;;5.54;100.00;100348.16;5109535;28;20031;-85
2021/12/24 00:08:27;;;;;;;100.43;42.70;;;;;;;5.59;100.00;100349.69;5110267;28;20047;-86
2021/12/24 00:10:59;;;;;;;92.75;41.05;;;;;;;5.60;100.00;100348.78;5096841;28;20070;-86
2021/12/24 00:13:30;;;;;;;91.15;40.42;;;;;;;5.59;100.00;100346.19;5104577;28;20028;-86
2021/12/24 00:18:48;;;;;;;82.30;39.30;;;;;;;5.66;100.00;100360.88;5098708;28;20252;-86
2021/12/24 00:35:17;;;;;;;78.90;38.25;;;;;;;5.66;100.00;100337.13;5107741;28;20097;-86
2021/12/24 00:37:46;;;;;;;79.90;38.63;;;;;;;5.70;100.00;100339.56;5109124;28;20027;-86
2021/12/24 00:40:18;;;;;;;80.68;39.65;;;;;;;5.73;100.00;100343.88;5109434;28;20427;-86
2021/12/24 00:42:46;;;;;;;83.15;39.47;;;;;;;5.62;100.00;100314.38;5106198;28;20015;-86
2021/12/24 00:45:14;;;;;;;82.40;40.15;;;;;;;5.70;100.00;100342.22;5107549;28;20051;-86
2021/12/24 00:47:40;;;;;;;83.05;40.70;;;;;;;5.65;100.00;100332.75;5108891;28;20502;-86
2021/12/24 00:50:09;;;;;;;84.68;41.88;;;;;;;5.69;100.00;100326.44;5109090;28;20027;-86
2021/12/24 00:52:47;;;;;;;86.47;42.40;;;;;;;5.78;100.00;100333.16;5098015;28;20036;-86
2021/12/24 00:55:20;;;;;;;83.72;41.20;;;;;;;5.63;100.00;100316.09;5089943;28;20024;-86
2021/12/24 00:57:49;;;;;;;82.80;41.05;;;;;;;5.75;100.00;100337.59;5098914;28;20020;-86
2021/12/24 01:00:25;;;;;;;82.13;39.88;;;;;;;5.65;100.00;100314.28;5087702;28;20370;-86
2021/12/24 01:02:52;;;;;;;77.68;38.72;;;;;;;5.77;100.00;100342.84;5102706;28;20443;-86
2021/12/24 01:05:19;;;;;;;80.85;39.55;;;;;;;5.74;100.00;100335.03;5095903;28;20381;-86
2021/12/24 01:07:45;;;;;;;79.38;37.85;;;;;;;5.76;100.00;100319.97;5088760;28;20024;-86
2021/12/24 01:10:14;;;;;;;85.85;40.45;;;;;;;5.81;100.00;100328.59;5087679;28;20109;-86
2021/12/24 01:12:40;;;;;;;83.32;40.20;;;;;;;5.77;100.00;100318.19;5100427;28;20028;-86
2021/12/24 01:15:06;;;;;;;91.10;42.15;;;;;;;5.77;100.00;100320.84;5107876;28;20043;-86
2021/12/24 01:17:38;;;;;;;88.43;41.85;;;;;;;5.87;100.00;100324.84;5109021;28;20076;-86
2021/12/24 01:20:21;;;;;;;87.60;43.72;;;;;;;5.85;100.00;100324.03;5106948;28;20508;-86
2021/12/24 01:23:23;;;;;;;89.43;42.80;;;;;;;5.79;100.00;100317.22;5094791;28;20036;-87
2021/12/24 01:42:40;;;;;;;111.43;46.33;;;;;;;6.05;100.00;100307.44;5106418;28;20218;-87
2021/12/24 01:44:05;;;;;;;121.45;49.97;;;;;;;6.04;100.00;100309.22;5096920;28;20295;-86
2021/12/24 01:46:31;;;;;;;120.60;49.88;;;;;;;6.06;100.00;100317.06;5108866;28;20024;-86
2021/12/24 01:48:56;;;;;;;115.32;51.13;;;;;;;6.04;100.00;100309.22;5110785;27;20067;-87
2021/12/24 01:51:21;;;;;;;113.28;49.05;;;;;;;6.04;100.00;100324.22;5111013;28;20031;-86
2021/12/24 01:53:46;;;;;;;122.30;49.00;;;;;;;6.08;100.00;100316.09;5106849;28;20034;-86
2021/12/24 01:56:12;;;;;;;115.70;48.97;;;;;;;6.09;100.00;100316.94;5107175;28;20034;-86
2021/12/24 01:58:37;;;;;;;123.75;52.63;;;;;;;6.12;100.00;100319.47;5096734;28;20032;-86
2021/12/24 02:01:02;;;;;;;105.47;46.55;;;;;;;6.05;100.00;100316.22;5102828;28;20053;-86
2021/12/24 02:03:28;;;;;;;118.53;50.85;;;;;;;6.14;100.00;100325.53;5105767;28;20067;-86
2021/12/24 02:05:53;;;;;;;122.38;52.20;;;;;;;6.10;100.00;100322.16;5108002;28;20520;-86
2021/12/24 02:08:18;;;;;;;118.45;50.90;;;;;;;6.11;100.00;100315.97;5106113;28;20054;-86
2021/12/24 02:10:44;;;;;;;117.00;51.03;;;;;;;6.16;100.00;100316.63;5107567;28;20070;-86
2021/12/24 02:13:10;;;;;;;108.85;48.25;;;;;;;6.19;100.00;100316.53;5105966;28;20039;-87
2021/12/24 02:29:22;;;;;;;105.72;45.58;;;;;;;6.24;100.00;100309.25;5111066;28;20042;-86
2021/12/24 02:31:48;;;;;;;104.93;46.03;;;;;;;6.22;100.00;100312.88;5107458;28;20035;-86
2021/12/24 02:34:13;;;;;;;101.40;45.75;;;;;;;6.19;100.00;100291.88;5110847;28;20528;-86
2021/12/24 02:36:39;;;;;;;100.72;45.47;;;;;;;6.24;100.00;100308.41;5091640;28;20039;-86
2021/12/24 02:39:05;;;;;;;102.47;44.90;;;;;;;6.24;100.00;100305.75;5110058;28;20032;-86
2021/12/24 02:41:31;;;;;;;109.82;46.03;;;;;;;6.26;100.00;100295.97;5108666;28;20019;-87
2021/12/24 02:43:57;;;;;;;97.18;45.22;;;;;;;6.28;100.00;100296.78;5100561;28;20061;-86
2021/12/24 02:46:40;;;;;;;106.97;47.08;;;;;;;6.28;100.00;100293.28;5106125;28;20031;-86
2021/12/24 02:49:17;;;;;;;113.68;48.88;;;;;;;6.28;100.00;100294.13;5096482;28;20020;-87
2021/12/24 02:54:26;;;;;;;110.13;45.05;;;;;;;6.23;100.00;100299.63;5109251;28;20168;-86
2021/12/24 02:56:55;;;;;;;107.68;48.05;;;;;;;6.29;100.00;100298.50;5090986;27;20119;-86
2021/12/24 02:59:26;;;;;;;106.38;47.78;;;;;;;6.31;100.00;100296.66;5098371;28;20019;-86
2021/12/24 03:01:54;;;;;;;117.43;48.40;;;;;;;6.29;100.00;100285.28;5108190;28;20024;-86
2021/12/24 03:04:20;;;;;;;111.40;46.97;;;;;;;6.31;100.00;100283.44;5110858;28;20035;-86
2021/12/24 03:06:48;;;;;;;124.72;50.45;;;;;;;6.31;100.00;100299.31;5108667;28;20028;-86
2021/12/24 03:09:16;;;;;;;121.15;48.97;;;;;;;6.34;100.00;100299.16;5109285;28;20554;-86
2021/12/24 03:11:43;;;;;;;117.43;48.95;;;;;;;6.34;100.00;100291.22;5098950;28;20097;-86
2021/12/24 03:14:09;;;;;;;114.85;47.40;;;;;;;6.20;100.00;100273.31;5112716;27;20028;-86
2021/12/24 03:16:36;;;;;;;118.18;50.25;;;;;;;6.36;100.00;100289.38;5110126;28;20057;-86
2021/12/24 03:19:03;;;;;;;123.70;50.17;;;;;;;6.40;100.00;100298.91;5104193;28;20107;-86
2021/12/24 03:22:12;;;;;;;119.22;49.50;;;;;;;6.32;100.00;100273.72;5105536;28;20020;-87
2021/12/24 03:26:46;;;;;;;128.18;50.20;;;;;;;6.41;100.00;100295.34;5107053;28;20043;-86
2021/12/24 03:29:13;;;;;;;132.10;52.70;;;;;;;6.41;100.00;100300.63;5110328;28;20028;-86
2021/12/24 03:31:39;;;;;;;125.35;50.90;;;;;;;6.38;100.00;100297.25;5104264;28;20036;-86
2021/12/24 03:34:08;;;;;;;137.13;51.25;;;;;;;6.38;100.00;100299.88;5092954;28;20116;-87
2021/12/24 03:36:33;;;;;;;137.82;50.80;;;;;;;6.39;100.00;100305.09;5110757;28;20047;-86
2021/12/24 03:38:59;;;;;;;119.25;50.25;;;;;;;6.37;100.00;100301.69;5109588;28;20067;-87
2021/12/24 03:41:24;;;;;;;127.47;51.40;;;;;;;6.43;100.00;100303.19;5107443;27;20024;-86
2021/12/24 03:43:51;;;;;;;129.43;52.63;;;;;;;6.41;100.00;100305.91;5108629;28;20043;-86
2021/12/24 03:46:19;;;;;;;137.60;53.10;;;;;;;6.38;100.00;100297.25;5109799;28;20045;-87
2021/12/24 03:49:08;;;;;;;141.48;52.90;;;;;;;6.44;100.00;100308.44;5110500;28;20031;-86
2021/12/24 03:51:44;;;;;;;127.78;50.80;;;;;;;6.32;100.00;100289.59;5106712;28;20035;-87
2021/12/24 03:56:53;;;;;;;;;;;;;;;6.43;100.00;100309.34;5095238;28;20043;-87
2021/12/24 03:59:18;;;;;;;124.25;49.22;;;;;;;6.42;100.00;100309.41;5109497;28;20364;-86
2021/12/24 04:01:44;;;;;;;133.90;53.08;;;;;;;6.44;100.00;100311.06;5102943;28;20024;-87
2021/12/24 04:04:12;;;;;;;140.70;51.50;;;;;;;6.42;100.00;100301.47;5092437;28;20078;-86
2021/12/24 04:06:38;;;;;;;147.20;53.33;;;;;;;6.38;100.00;100303.38;5110372;28;20081;-86
2021/12/24 04:09:05;;;;;;;134.85;51.72;;;;;;;6.44;100.00;100307.56;5093922;28;20024;-86
2021/12/24 04:11:31;;;;;;;133.32;52.63;;;;;;;6.45;100.00;100311.94;5107288;28;20036;-86
2021/12/24 04:13:56;;;;;;;136.63;51.75;;;;;;;6.46;100.00;100319.78;5107578;28;20088;-86
2021/12/24 04:16:22;;;;;;;135.63;54.63;;;;;;;6.46;100.00;100308.34;5099594;28;20118;-87
2021/12/24 04:26:40;;;;;;;141.85;56.20;;;;;;;6.43;100.00;100296.13;5109970;28;20119;-87
2021/12/24 04:29:06;;;;;;;146.57;52.72;;;;;;;6.54;100.00;100303.59;5111237;27;20102;-87
2021/12/24 04:31:42;;;;;;;149.38;54.53;;;;;;;6.45;100.00;100291.63;5104601;28;20027;-86
2021/12/24 04:34:07;;;;;;;136.32;51.70;;;;;;;6.51;100.00;100297.59;5100802;28;20023;-87
2021/12/24 05:03:09;;;;;;;108.75;44.17;;;;;;;6.56;100.00;100309.66;5089374;28;20376;-87
2021/12/24 05:05:48;;;;;;;122.60;45.40;;;;;;;6.59;100.00;100306.03;5105911;28;20066;-86
2021/12/24 05:08:22;;;;;;;106.72;45.20;;;;;;;6.58;100.00;100307.84;5107921;28;20028;-86
2021/12/24 05:10:49;;;;;;;110.93;43.42;;;;;;;6.59;100.00;100313.97;5105127;28;20122;-86
2021/12/24 05:13:18;;;;;;;105.03;42.35;;;;;;;6.59;100.00;100308.69;5104312;28;20035;-87
2021/12/24 05:15:47;;;;;;;95.68;38.22;;;;;;;6.52;100.00;100294.00;5108107;28;20028;-86
2021/12/24 05:18:30;;;;;;;103.05;42.40;;;;;;;6.63;100.00;100315.56;5108688;28;20024;-86
2021/12/24 05:23:40;;;;;;;92.47;37.22;;;;;;;6.61;100.00;100312.16;5107574;28;20686;-86
2021/12/24 05:26:06;;;;;;;91.75;36.97;;;;;;;6.63;100.00;100311.13;5103125;28;20031;-86
2021/12/24 05:28:31;;;;;;;91.13;37.45;;;;;;;6.58;100.00;100299.03;5108624;28;20487;-87
2021/12/24 05:30:57;;;;;;;94.43;37.78;;;;;;;6.55;100.00;100302.66;5102886;28;20873;-87
2021/12/24 05:33:22;;;;;;;93.18;37.38;;;;;;;6.63;100.00;100307.63;5108032;27;20051;-87
2021/12/24 05:35:48;;;;;;;90.45;35.42;;;;;;;6.62;100.00;100308.56;5109225;27;20027;-87
2021/12/24 05:38:15;;;;;;;75.60;32.28;;;;;;;6.59;100.00;100306.91;5106515;28;20034;-86
2021/12/24 05:40:41;;;;;;;88.80;34.83;;;;;;;6.63;100.00;100316.41;5096392;28;20241;-86
2021/12/24 05:43:06;;;;;;;75.70;34.15;;;;;;;6.61;100.00;100318.28;5097141;28;20376;-86
2021/12/24 05:45:31;;;;;;;77.43;32.00;;;;;;;6.61;100.00;100317.44;5105401;28;20063;-86
2021/12/24 05:47:57;;;;;;;69.50;28.20;;;;;;;6.58;100.00;100312.25;5096985;28;20096;-86
2021/12/24 05:50:23;;;;;;;75.30;30.23;;;;;;;6.55;100.00;100317.69;5093489;28;20077;-86
2021/12/24 05:52:48;;;;;;;76.18;32.15;;;;;;;6.61;100.00;100326.22;5087913;28;20035;-86
2021/12/24 05:55:13;;;;;;;75.95;31.75;;;;;;;6.61;100.00;100325.38;5102720;28;20487;-86
2021/12/24 05:57:39;;;;;;;73.70;31.17;;;;;;;6.52;100.00;100304.56;5101258;28;20032;-86
2021/12/24 06:00:09;;;;;;;72.95;32.30;;;;;;;6.55;100.00;100320.31;5091900;28;20381;-86
2021/12/24 06:02:36;;;;;;;76.28;31.65;;;;;;;6.56;100.00;100319.38;5101228;28;20110;-86
2021/12/24 06:05:02;;;;;;;68.72;30.30;;;;;;;6.54;100.00;100311.53;5107330;28;20028;-86
2021/12/24 06:07:27;;;;;;;69.07;31.10;;;;;;;6.57;100.00;100319.34;5107867;28;20020;-86
2021/12/24 06:09:52;;;;;;;73.53;31.13;;;;;;;6.60;100.00;100324.47;5106907;28;20027;-86
2021/12/24 06:12:18;;;;;;;74.20;31.02;;;;;;;6.58;100.00;100328.13;5093571;28;20093;-86
2021/12/24 06:14:45;;;;;;;66.18;28.55;;;;;;;6.60;100.00;100331.56;5107601;28;20472;-86
2021/12/24 06:17:16;;;;;;;72.63;30.25;;;;;;;6.62;100.00;100342.94;5104563;28;20464;-87
2021/12/24 06:19:42;;;;;;;73.70;30.48;;;;;;;6.60;100.00;100336.84;5107075;28;20027;-87
2021/12/24 06:22:07;;;;;;;67.32;27.77;;;;;;;6.60;100.00;100350.91;5102133;28;20111;-85
2021/12/24 06:24:33;;;;;;;73.82;29.38;;;;;;;6.60;100.00;100340.34;5108156;28;20417;-85
2021/12/24 06:26:58;;;;;;;66.13;27.13;;;;;;;6.61;100.00;100343.88;5107651;28;20524;-85
2021/12/24 06:29:24;;;;;;;70.20;27.95;;;;;;;6.60;100.00;100332.41;5108084;28;20395;-86
2021/12/24 06:31:50;;;;;;;64.20;25.88;;;;;;;6.57;100.00;100326.41;5104075;28;20027;-85
2021/12/24 06:34:16;;;;;;;61.92;26.15;;;;;;;6.61;100.00;100328.88;5094515;28;20031;-84
2021/12/24 06:36:44;;;;;;;71.53;27.20;;;;;;;6.58;100.00;100328.13;5087577;28;20051;-85
2021/12/24 06:39:11;;;;;;;63.70;27.08;;;;;;;6.60;100.00;100336.84;5099820;28;20027;-86
2021/12/24 06:41:36;;;;;;;61.20;26.85;;;;;;;6.60;100.00;100332.41;5105500;28;20032;-85
2021/12/24 06:44:04;;;;;;;62.45;28.17;;;;;;;6.61;100.00;100336.81;5092698;28;20035;-86
2021/12/24 06:46:29;;;;;;;69.28;29.52;;;;;;;6.58;100.00;100334.28;5098264;28;20502;-85
2021/12/24 06:48:56;;;;;;;68.30;30.17;;;;;;;6.62;100.00;100337.66;5107842;28;20032;-86
2021/12/24 06:51:26;;;;;;;64.75;30.05;;;;;;;6.60;100.00;100337.69;5105747;28;20047;-85
2021/12/24 06:53:52;;;;;;;71.85;32.33;;;;;;;6.60;100.00;100332.41;5107993;28;20476;-86
2021/12/24 06:56:17;;;;;;;70.07;30.70;;;;;;;6.62;100.00;100345.59;5107622;28;20028;-85
2021/12/24 06:58:42;;;;;;;74.90;30.42;;;;;;;6.64;100.00;100355.16;5106030;28;20023;-85
2021/12/24 07:01:08;;;;;;;67.43;30.85;;;;;;;6.63;100.00;100353.44;5103341;28;20032;-85
2021/12/24 07:03:34;;;;;;;67.75;30.00;;;;;;;6.65;100.00;100348.97;5107846;28;20027;-84
2021/12/24 07:05:59;;;;;;;74.45;30.48;;;;;;;6.57;100.00;100326.41;5085957;28;20027;-85
2021/12/24 07:08:25;;;;;;;72.07;27.88;;;;;;;6.62;100.00;100332.38;5087734;28;20020;-85
2021/12/24 07:10:51;;;;;;;71.38;30.48;;;;;;;6.58;100.00;100326.34;5092627;28;20036;-85
2021/12/24 07:13:16;;;;;;;67.30;27.52;;;;;;;6.58;100.00;100323.69;5086772;28;20106;-84
2021/12/24 07:15:41;;;;;;;69.95;28.95;;;;;;;6.60;100.00;100316.53;5090992;28;20026;-85
2021/12/24 07:18:07;;;;;;;56.63;26.35;;;;;;;6.62;100.00;100330.56;5096484;28;20058;-87
2021/12/24 07:20:32;;;;;;;63.00;27.40;;;;;;;6.64;100.00;100328.72;5099720;28;20092;-85
2021/12/24 07:22:57;;;;;;;58.67;26.25;;;;;;;6.66;100.00;100321.59;5109999;28;20422;-85
2021/12/24 07:25:22;;;;;;;57.08;27.05;;;;;;;6.65;100.00;100325.16;5106498;28;20031;-85
2021/12/24 07:27:48;;;;;;;67.25;27.88;;;;;;;6.58;100.00;100313.13;5110816;28;20801;-85
2021/12/24 07:30:14;;;;;;;62.17;26.67;;;;;;;6.63;100.00;100332.28;5101735;28;20099;-85
2021/12/24 07:32:41;;;;;;;62.60;28.50;;;;;;;6.66;100.00;100329.53;5109292;28;20130;-85
2021/12/24 07:35:07;;;;;;;58.22;26.83;;;;;;;6.68;100.00;100334.72;5110492;28;20046;-85
2021/12/24 07:37:33;;;;;;;61.10;27.40;;;;;;;6.69;100.00;100332.03;5108454;27;20029;-84
2021/12/24 07:39:58;;;;;;;64.07;27.23;;;;;;;6.70;100.00;100327.59;5107429;28;20505;-86
2021/12/24 07:42:25;;;;;;;61.78;28.30;;;;;;;6.66;100.00;100324.22;5088980;28;20088;-85
2021/12/24 07:44:51;;;;;;;59.25;28.13;;;;;;;6.71;100.00;100330.19;5107567;28;20044;-84
2021/12/24 07:47:27;;;;;;;75.22;31.42;;;;;;;6.71;100.00;100339.91;5108999;28;20076;-85
2021/12/24 07:50:00;;;;;;;74.35;31.65;;;;;;;6.65;100.00;100335.75;5109523;28;20103;-84
2021/12/24 07:52:26;;;;;;;68.82;31.10;;;;;;;6.72;100.00;100354.84;5108291;28;20035;-84
2021/12/24 07:54:54;;;;;;;67.50;31.48;;;;;;;6.70;100.00;100349.63;5109182;28;20023;-85
2021/12/24 07:57:21;;;;;;;70.80;31.05;;;;;;;6.72;100.00;100352.19;5109199;28;20027;-85
2021/12/24 07:59:46;;;;;;;72.72;30.75;;;;;;;6.73;100.00;100354.78;5109940;28;20053;-85
2021/12/24 08:02:17;;;;;;;70.38;29.55;;;;;;;6.69;100.00;100339.13;5107033;28;20031;-85
2021/12/24 08:04:45;;;;;;;64.25;30.08;;;;;;;6.75;100.00;100341.50;5105810;28;20031;-84
2021/12/24 08:07:12;;;;;;;69.53;30.67;;;;;;;6.72;100.00;100328.38;5109135;28;20028;-85
2021/12/24 08:09:38;;;;;;;66.50;29.75;;;;;;;6.76;100.00;100339.69;5109342;28;20347;-84
2021/12/24 08:12:06;;;;;;;67.82;29.90;;;;;;;6.66;100.00;100323.38;5103123;28;20024;-85
2021/12/24 08:14:32;;;;;;;72.00;29.35;;;;;;;6.71;100.00;100329.31;5109163;28;20035;-85
2021/12/24 08:16:57;;;;;;;56.25;28.52;;;;;;;6.68;100.00;100327.66;5109132;28;20019;-84
2021/12/24 08:19:22;;;;;;;62.40;27.95;;;;;;;6.68;100.00;100326.81;5109152;28;20049;-85
2021/12/24 08:21:48;;;;;;;69.40;30.90;;;;;;;6.68;100.00;100329.44;5092133;28;20024;-85
2021/12/24 08:24:13;;;;;;;74.05;32.67;;;;;;;6.64;100.00;100328.72;5108537;28;20399;-85
2021/12/24 08:26:39;;;;;;;74.65;30.27;;;;;;;6.72;100.00;100344.25;5108370;28;20420;-85
2021/12/24 08:29:04;;;;;;;77.18;32.08;;;;;;;6.77;100.00;100346.69;5107271;28;20110;-85
2021/12/24 08:31:31;;;;;;;78.43;32.42;;;;;;;6.77;100.00;100352.84;5103822;28;20100;-84
2021/12/24 08:33:56;;;;;;;80.15;33.20;;;;;;;6.77;100.00;100339.63;5088718;28;20019;-84
2021/12/24 08:36:22;;;;;;;74.38;32.70;;;;;;;6.77;100.00;100350.19;5091832;28;20382;-84
2021/12/24 08:38:47;;;;;;;79.15;33.17;;;;;;;6.66;100.00;100320.72;5105811;27;20032;-84
2021/12/24 08:41:12;;;;;;;78.95;33.97;;;;;;;6.74;100.00;100329.19;5095602;28;20047;-85
2021/12/24 08:43:37;;;;;;;77.47;31.45;;;;;;;6.74;100.00;100326.56;5100294;28;20405;-85
2021/12/24 08:46:03;;;;;;;75.45;34.20;;;;;;;6.76;100.00;100329.97;5105989;28;20036;-85
2021/12/24 08:48:28;;;;;;;79.72;33.65;;;;;;;6.74;100.00;100323.91;5102927;28;20024;-84
2021/12/24 08:50:53;;;;;;;76.03;30.80;;;;;;;6.73;100.00;100316.91;5099423;28;20016;-85
2021/12/24 08:53:19;;;;;;;73.40;30.38;;;;;;;6.83;100.00;100320.00;5103715;28;20470;-85
2021/12/24 08:55:45;;;;;;;75.45;30.13;;;;;;;6.87;100.00;100318.94;5097764;28;20031;-85
2021/12/24 08:58:10;;;;;;;69.43;28.52;;;;;;;6.90;100.00;100321.47;5094681;28;20553;-84
2021/12/24 09:00:36;;;;;;;64.25;27.45;;;;;;;6.96;100.00;100319.38;5100317;28;20054;-84
2021/12/24 09:03:03;;;;;;;62.22;26.58;;;;;;;7.00;100.00;100317.47;5103629;28;20019;-84
2021/12/24 09:05:29;;;;;;;63.42;25.85;;;;;;;7.06;100.00;100305.75;5095526;28;20035;-84
2021/12/24 09:07:54;;;;;;;67.93;26.88;;;;;;;7.16;100.00;100312.34;5106753;28;20031;-84
2021/12/24 09:10:20;;;;;;;63.40;27.13;;;;;;;7.18;100.00;100299.91;5100613;28;20023;-84
2021/12/24 09:12:45;;;;;;;61.70;26.48;;;;;;;7.32;100.00;100316.03;5101770;28;20039;-84
2021/12/24 09:15:12;;;;;;;66.07;26.00;;;;;;;7.37;100.00;100311.38;5100261;28;20028;-84
2021/12/24 09:17:43;;;;;;;67.50;26.15;;;;;;;7.40;100.00;100313.88;5107953;28;20048;-84
2021/12/24 09:20:09;;;;;;;60.20;25.58;;;;;;;7.47;100.00;100310.00;5095284;28;20035;-85
2021/12/24 09:22:35;;;;;;;59.40;24.80;;;;;;;7.46;100.00;100297.69;5094037;28;20031;-86
2021/12/24 09:25:01;;;;;;;59.22;24.08;;;;;;;7.58;100.00;100311.31;5085545;28;20020;-84
2021/12/24 09:27:26;;;;;;;60.10;25.17;;;;;;;7.54;100.00;100305.28;5086574;28;20020;-87
2021/12/24 09:29:52;;;;;;;58.05;25.75;;;;;;;7.58;100.00;100313.94;5098004;28;20038;-86
2021/12/24 09:32:18;;;;;;;52.95;24.63;;;;;;;7.49;100.00;100307.31;5088434;28;20031;-86
2021/12/24 09:34:43;;;;;;;65.72;25.65;;;;;;;7.51;100.00;100317.81;5103081;28;20452;-86
2021/12/24 09:37:08;;;;;;;60.85;26.00;;;;;;;7.39;100.00;100306.84;5107816;28;20032;-86
2021/12/24 09:39:34;;;;;;;62.90;26.73;;;;;;;7.42;100.00;100314.66;5103881;28;20084;-86
2021/12/24 09:42:00;;;;;;;72.28;27.40;;;;;;;7.40;100.00;100321.81;5105332;28;20028;-85
2021/12/24 09:44:26;;;;;;;61.17;27.63;;;;;;;7.34;100.00;100313.28;5086837;28;20542;-85
2021/12/24 09:46:52;;;;;;;67.53;28.02;;;;;;;7.34;100.00;100316.78;5099999;28;20040;-84
2021/12/24 09:49:17;;;;;;;63.40;27.13;;;;;;;7.31;100.00;100318.72;5105444;28;20027;-86
2021/12/24 09:51:46;;;;;;;69.47;26.63;;;;;;;7.27;100.00;100312.69;5099659;28;20028;-86
2021/12/24 09:54:14;;;;;;;62.03;26.92;;;;;;;7.24;100.00;100303.13;5089655;28;20036;-86
2021/12/24 09:56:40;;;;;;;68.03;27.33;;;;;;;7.28;100.00;100313.59;5099019;28;20032;-87
2021/12/24 09:59:05;;;;;;;65.75;28.98;;;;;;;7.27;100.00;100314.50;5099133;28;20030;-86
2021/12/24 10:01:33;;;;;;;69.05;30.55;;;;;;;7.26;100.00;100310.13;5092944;28;20499;-88
2021/12/24 10:04:02;;;;;;;69.22;29.33;;;;;;;7.24;100.00;100319.00;5105080;28;20399;-88
2021/12/24 10:06:28;;;;;;;78.57;31.75;;;;;;;7.23;100.00;100316.41;5106736;28;20062;-86
2021/12/24 10:09:04;;;;;;;71.28;30.33;;;;;;;7.22;100.00;100315.56;5104558;28;20480;-86
2021/12/24 10:11:30;;;;;;;76.68;31.00;;;;;;;7.19;100.00;100312.19;5091465;28;20043;-86
2021/12/24 10:14:04;;;;;;;77.10;32.53;;;;;;;7.13;100.00;100309.84;5087449;28;20114;-86
2021/12/24 10:16:29;;;;;;;82.45;32.20;;;;;;;7.18;100.00;100313.13;5088021;28;20077;-86
2021/12/24 10:18:58;;;;;;;77.85;32.20;;;;;;;7.10;100.00;100300.22;5087380;28;20049;-86
2021/12/24 10:21:26;;;;;;;82.55;33.17;;;;;;;7.16;100.00;100317.66;5101668;28;20028;-86
2021/12/24 10:24:00;;;;;;;75.72;31.83;;;;;;;7.16;100.00;100315.00;5109282;28;20051;-86
2021/12/24 10:26:33;;;;;;;73.63;31.98;;;;;;;7.18;100.00;100318.41;5107649;28;20027;-85
2021/12/24 10:29:27;;;;;;;72.80;32.63;;;;;;;7.19;100.00;100320.13;5107341;28;20024;-86
2021/12/24 10:31:55;;;;;;;81.85;33.13;;;;;;;7.17;100.00;100311.41;5103966;28;20027;-86
2021/12/24 10:34:30;;;;;;;76.35;31.65;;;;;;;7.20;100.00;100306.00;5107892;28;20510;-86
2021/12/24 10:37:23;;;;;;;87.00;35.28;;;;;;;7.23;100.00;100308.47;5107456;28;20051;-87
2021/12/24 10:39:54;;;;;;;75.55;34.70;;;;;;;7.19;100.00;100299.84;5098206;28;20067;-86
2021/12/24 10:42:21;;;;;;;87.57;35.28;;;;;;;7.24;100.00;100305.78;5107113;28;20020;-86
2021/12/24 10:44:50;;;;;;;79.13;36.15;;;;;;;7.17;100.00;100292.88;5109830;28;20043;-86
2021/12/24 10:47:25;;;;;;;80.03;35.03;;;;;;;7.27;100.00;100306.56;5110950;28;20040;-86
2021/12/24 10:50:04;;;;;;;82.88;35.03;;;;;;;7.17;100.00;100287.59;5109036;28;20028;-86
2021/12/24 10:55:30;;;;;;;81.05;36.67;;;;;;;7.27;100.00;100304.75;5110716;28;20040;-85
2021/12/24 10:57:59;;;;;;;80.85;37.58;;;;;;;7.29;100.00;100294.13;5110999;28;20028;-85
2021/12/24 11:00:34;;;;;;;89.80;38.28;;;;;;;7.29;100.00;100289.69;5100758;28;20469;-86
2021/12/24 11:03:02;;;;;;;87.53;38.67;;;;;;;7.39;100.00;100287.47;5090369;28;20102;-86
2021/12/24 11:05:45;;;;;;;89.70;37.97;;;;;;;7.46;100.00;100287.09;5090552;28;20028;-85
2021/12/24 11:08:13;;;;;;;86.72;38.03;;;;;;;7.48;100.00;100298.50;5089654;28;20045;-86
2021/12/24 11:10:41;;;;;;;81.97;36.85;;;;;;;7.47;100.00;100291.47;5101821;28;20392;-86
2021/12/24 11:13:12;;;;;;;85.40;37.63;;;;;;;7.51;100.00;100293.97;5110473;28;20030;-86
2021/12/24 11:15:47;;;;;;;83.32;36.38;;;;;;;7.49;100.00;100299.34;5109325;28;20086;-86
2021/12/24 11:18:21;;;;;;;85.10;36.40;;;;;;;7.49;100.00;100286.97;5100556;28;20016;-86
2021/12/24 11:21:07;;;;;;;82.05;37.28;;;;;;;7.48;100.00;100289.66;5108497;28;20488;-86
2021/12/24 11:23:34;;;;;;;84.78;37.00;;;;;;;7.51;100.00;100288.69;5110173;28;20028;-86
2021/12/24 11:26:03;;;;;;;86.50;38.22;;;;;;;7.51;100.00;100289.53;5110633;28;20027;-85
2021/12/24 11:28:30;;;;;;;87.43;37.58;;;;;;;7.51;100.00;100286.03;5110296;28;20038;-86
2021/12/24 11:31:03;;;;;;;78.47;38.35;;;;;;;7.45;100.00;100279.25;5107791;28;20039;-86
2021/12/24 11:33:31;;;;;;;81.73;37.50;;;;;;;7.54;100.00;100283.25;5114354;27;20028;-85
2021/12/24 11:35:58;;;;;;;79.13;38.47;;;;;;;7.53;100.00;100289.47;5109874;28;20042;-86
2021/12/24 11:38:32;;;;;;;80.80;38.67;;;;;;;7.46;100.00;100279.16;5110662;27;20023;-86
2021/12/24 11:40:58;;;;;;;79.07;37.78;;;;;;;7.57;100.00;100293.72;5095317;28;20028;-86
2021/12/24 11:43:29;;;;;;;83.18;39.13;;;;;;;7.55;100.00;100290.25;5090456;28;20065;-86
2021/12/24 11:45:58;;;;;;;77.72;36.58;;;;;;;7.56;100.00;100281.38;5091531;28;20134;-86
2021/12/24 11:48:26;;;;;;;78.82;36.47;;;;;;;7.61;100.00;100284.69;5090267;28;20415;-85
2021/12/24 11:50:51;;;;;;;78.25;37.13;;;;;;;7.69;100.00;100293.09;5104980;28;20027;-86
2021/12/24 11:53:17;;;;;;;80.63;35.53;;;;;;;7.71;100.00;100291.25;5108389;28;20034;-86
2021/12/24 11:55:48;;;;;;;76.50;37.58;;;;;;;7.69;100.00;100298.38;5112732;27;20325;-86
2021/12/24 11:58:16;;;;;;;80.75;36.10;;;;;;;7.65;100.00;100296.81;5110403;28;20047;-86
2021/12/24 12:00:44;;;;;;;79.13;36.65;;;;;;;7.65;100.00;100288.88;5101437;28;20027;-85
2021/12/24 12:03:28;;;;;;;69.97;33.25;;;;;;;7.64;100.00;100301.25;5112462;27;20062;-86
2021/12/24 12:05:53;;;;;;;74.93;35.28;;;;;;;7.63;100.00;100282.81;5089504;28;20040;-86
2021/12/24 12:08:25;;;;;;;73.18;33.83;;;;;;;7.63;100.00;100280.16;5097172;28;20080;-86
2021/12/24 12:11:04;;;;;;;73.40;33.17;;;;;;;7.65;100.00;100279.16;5107918;28;20063;-86
2021/12/24 12:13:46;;;;;;;70.30;33.20;;;;;;;7.65;100.00;100278.28;5110010;28;20023;-86
2021/12/24 12:16:15;;;;;;;75.63;32.15;;;;;;;7.66;100.00;100277.38;5109535;28;20401;-85
2021/12/24 12:19:03;;;;;;;70.88;33.25;;;;;;;7.66;100.00;100277.38;5109593;28;20055;-86
2021/12/24 12:21:41;;;;;;;71.40;34.08;;;;;;;7.64;100.00;100277.41;5108754;28;20034;-86
2021/12/24 12:26:44;;;;;;;73.18;33.15;;;;;;;7.60;100.00;100290.88;5098492;27;20097;-85
2021/12/24 12:29:15;;;;;;;72.43;32.58;;;;;;;7.58;100.00;100279.53;5096245;28;20838;-86
2021/12/24 12:31:41;;;;;;;69.20;33.60;;;;;;;7.56;100.00;100281.38;5087831;28;20035;-86
2021/12/24 12:34:48;;;;;;;72.45;34.83;;;;;;;7.57;100.00;100280.47;5097233;28;20032;-86
2021/12/24 12:37:24;;;;;;;69.70;34.05;;;;;;;7.51;100.00;100272.78;5091242;27;20070;-82
2021/12/24 12:40:12;;;;;;;63.55;33.13;;;;;;;7.55;100.00;100275.22;5100545;28;20054;-85
2021/12/24 12:42:54;;;;;;;73.18;35.42;;;;;;;7.53;100.00;100277.09;5088579;28;20024;-85
2021/12/24 12:45:26;;;;;;;65.97;32.60;;;;;;;7.52;100.00;100277.16;5096877;28;20100;-84
2021/12/24 12:47:59;;;;;;;70.00;34.38;;;;;;;7.51;100.00;100270.16;5095781;28;20036;-85
2021/12/24 12:50:27;;;;;;;68.80;33.63;;;;;;;7.54;100.00;100275.31;5090145;28;20062;-86